Skip Navigation Links
NOAA logo - Click to go to the NOAA homepage
NOAA's National Weather Service
Alaska Aviation Weather Unit
  NWS logo - Click to go to the NWS homepage
Left Navbar Graphic     23 AKDT = 07 GMT

   
NOAA is celebrating 200 years of science, service, and stewardship. Visit the NOAA 200th celebration Web site to learn more.
USA.gov is the U.S. Government's official Web portal to all Federal, state and local government Web resources and services.
Facebook
NWS on Facebook

Important Change Regarding the AAWU Web Presence

 

Over the last several months, the AAWU has been working to navigate its webpages to a nationally supported server. Security, as well as other needs, have necessitated the change.  In the process, we have made an effort to enhance the functionality of our website, as well as some of our products. As of June 20, 2017, aawu.arh.noaa.gov will be discontinued. The new AAWU web address is weather.gov/aawu. It is now live and will run in-parallel with the old site until it is discontinued. Please send any feedback or questions regarding the new webpages to nws.ar.aawu.webauthors@noaa.gov.  Thank you for your patience during this time of transition.
AAWU Home :: Display TAF Add Bookmark
TAF CYZF 240538Z 2406/2506 35005KT P6SM FEW050
     FM241700 32015KT P6SM SCT050
      BECMG 2417/2419 32015G25KT
     FM250200 32015KT P6SM BKN050 RMK
      NXT FCST BY 241200Z=

CYZF 240100Z 33016KT 310V030 15SM SCT060TCU BKN120 19/06 A2947 RMK TCU3AC2 SLP988 DENSITY ALT 1800FT= METAR CYZF 240200Z 35011KT 15SM FEW059TCU SCT140 18/07 A2948 RMK TCU2AC2 SLP992 DENSITY ALT 1600FT= METAR CYZF 240300Z 36013KT 15SM SCT045TCU BKN120 BKN220 17/06 A2950 RMK TCU4AC1CI1 SLP996 DENSITY ALT 1500FT= METAR CYZF 240400Z 36014G21KT 15SM FEW040CB FEW120 14/05 A2952 RMK CB1AC1 SLP003 DENSITY ALT 1200FT= METAR CYZF 240500Z 35009KT 15SM FEW040TCU FEW120 12/04 A2953 RMK TCU1AC1 SLP008 DENSITY ALT 900FT= METAR CYZF 240600Z 34008KT 15SM FEW040 FEW120 11/04 A2954 RMK SC1AC1 SC TR AC TR SLP011 DENSITY ALT 700FT= METAR CYZF 240700Z 35008KT 15SM FEW120 10/04 A2955 RMK AC1 AC TR SLP013=
 Alaska TAF Map

NOAA's National Weather Service
Alaska Aviation Weather Unit
6930 Sand Lake Road
Anchorage, AK 99502-1845
Disclaimer
Credits
Glossary
Privacy Policy
About Us
Career Opportunities
Contact AAWU Internet Services Site last modified: April, 17th 2012